createdAt,value
2019-05-01T00:01:11.131Z,62.20
2019-05-01T00:04:00.939Z,62.39
2019-05-01T00:06:34.846Z,62.54
2019-05-01T00:09:01.927Z,62.80
2019-05-01T00:11:33.106Z,63.47
2019-05-01T00:14:00.267Z,63.63
2019-05-01T00:16:29.436Z,63.83
2019-05-01T00:18:56.540Z,63.69
2019-05-01T00:21:23.558Z,64.10
2019-05-01T00:23:50.957Z,65.42
2019-05-01T00:26:19.129Z,66.67
2019-05-01T00:28:47.476Z,67.57
2019-05-01T00:31:15.125Z,67.92
2019-05-01T00:33:43.413Z,68.28
2019-05-01T00:36:10.568Z,68.10
2019-05-01T00:38:38.012Z,67.31
2019-05-01T00:41:05.044Z,66.48
2019-05-01T00:43:32.079Z,66.14
2019-05-01T00:45:59.379Z,66.02
2019-05-01T00:48:26.428Z,66.08
2019-05-01T00:50:53.543Z,65.93
2019-05-01T00:53:20.601Z,65.84
2019-05-01T00:56:07.248Z,65.77
2019-05-01T00:59:03.269Z,65.37
2019-05-01T01:01:49.636Z,64.34
2019-05-01T01:04:18.624Z,64.02
2019-05-01T01:06:46.033Z,64.19
2019-05-01T01:09:13.636Z,64.58
2019-05-01T01:11:40.708Z,64.87
2019-05-01T01:14:07.959Z,65.02
2019-05-01T01:16:36.109Z,64.54
2019-05-01T01:19:03.694Z,64.24
2019-05-01T01:21:31.104Z,64.45
2019-05-01T01:23:59.072Z,64.81
2019-05-01T01:26:26.419Z,65.25
2019-05-01T01:28:53.483Z,65.72
2019-05-01T01:31:20.638Z,66.07
2019-05-01T01:33:48.012Z,66.07
2019-05-01T01:36:17.248Z,66.04
2019-05-01T01:38:44.357Z,66.01
2019-05-01T01:41:11.501Z,66.15
2019-05-01T01:43:47.932Z,66.07
2019-05-01T01:46:17.355Z,66.51
2019-05-01T01:48:44.615Z,66.84
2019-05-01T01:51:11.650Z,66.52
2019-05-01T01:53:39.046Z,66.27
2019-05-01T01:56:06.259Z,65.53
2019-05-01T01:58:33.650Z,64.92
2019-05-01T02:01:18.463Z,64.93
2019-05-01T02:03:49.277Z,64.78
2019-05-01T02:06:16.650Z,65.06
2019-05-01T02:08:55.952Z,65.20
2019-05-01T02:11:13.288Z,65.67
2019-05-01T02:13:40.566Z,65.87
2019-05-01T02:16:07.666Z,65.68
2019-05-01T02:18:35.157Z,65.90
2019-05-01T02:21:02.239Z,66.30
2019-05-01T02:23:29.309Z,66.31
2019-05-01T02:25:56.376Z,66.69
2019-05-01T02:28:30.426Z,67.04
2019-05-01T02:31:28.345Z,68.00
2019-05-01T02:33:57.105Z,68.17
2019-05-01T02:36:27.517Z,67.84
2019-05-01T02:38:56.838Z,67.80
2019-05-01T02:41:29.540Z,68.13
2019-05-01T02:44:04.972Z,68.51
2019-05-01T02:46:35.030Z,68.92
2019-05-01T02:49:07.037Z,69.17
2019-05-01T02:51:37.631Z,68.92
2019-05-01T02:54:05.458Z,68.22
2019-05-01T02:57:00.284Z,67.84
2019-05-01T02:59:29.602Z,67.56
2019-05-01T03:01:58.666Z,68.18
2019-05-01T03:04:26.464Z,68.27
2019-05-01T03:06:53.790Z,68.84
2019-05-01T03:09:22.151Z,69.18
2019-05-01T03:11:52.638Z,69.23
2019-05-01T03:14:22.570Z,69.53
2019-05-01T03:16:53.128Z,69.69
2019-05-01T03:19:41.095Z,69.51
2019-05-01T03:22:28.085Z,69.03
2019-05-01T03:24:55.678Z,68.51
2019-05-01T03:27:25.835Z,68.58
2019-05-01T03:29:53.211Z,68.29
2019-05-01T03:32:20.712Z,67.79
2019-05-01T03:34:52.314Z,67.18
2019-05-01T03:37:17.209Z,67.20
2019-05-01T03:39:44.243Z,67.98
2019-05-01T03:42:11.606Z,69.44
2019-05-01T03:44:39.072Z,71.11
2019-05-01T03:47:06.112Z,71.38
2019-05-01T03:49:33.380Z,70.86
2019-05-01T03:52:00.434Z,70.29
2019-05-01T03:54:28.243Z,69.86
2019-05-01T03:56:55.780Z,69.94
2019-05-01T03:59:26.270Z,70.59
2019-05-01T04:02:32.774Z,71.37
2019-05-01T04:04:48.965Z,72.06
2019-05-01T04:07:16.284Z,72.75
2019-05-01T04:09:43.698Z,73.34
2019-05-01T04:12:10.950Z,73.47
2019-05-01T04:14:39.227Z,74.69
2019-05-01T04:17:19.174Z,76.10
2019-05-01T04:19:47.058Z,77.01
2019-05-01T04:22:14.301Z,76.82
2019-05-01T04:24:43.727Z,76.13
2019-05-01T04:27:16.107Z,74.62
2019-05-01T04:29:56.041Z,72.63
2019-05-01T04:32:27.564Z,70.50
2019-05-01T04:35:20.010Z,69.26
2019-05-01T04:37:47.574Z,69.45
2019-05-01T04:40:19.081Z,69.98
2019-05-01T04:42:46.611Z,69.47
2019-05-01T04:45:14.772Z,67.99
2019-05-01T04:47:42.552Z,65.87
2019-05-01T04:50:10.348Z,65.18
2019-05-01T04:52:38.209Z,66.52
2019-05-01T04:55:07.888Z,67.13
2019-05-01T04:57:35.408Z,68.18
2019-05-01T05:00:03.743Z,68.05
2019-05-01T05:02:38.130Z,65.91
2019-05-01T05:05:07.742Z,63.93
2019-05-01T05:07:35.592Z,62.14
2019-05-01T05:10:04.657Z,60.89
2019-05-01T05:12:50.910Z,59.89
2019-05-01T05:15:31.838Z,58.80
2019-05-01T05:18:01.426Z,57.82
2019-05-01T05:20:30.413Z,57.08
2019-05-01T05:23:00.724Z,56.35
2019-05-01T05:25:27.931Z,55.49
2019-05-01T05:27:59.481Z,54.76
2019-05-01T05:30:27.713Z,54.03
2019-05-01T05:32:57.816Z,53.57
2019-05-01T05:35:26.046Z,53.33
2019-05-01T05:38:16.861Z,52.73
2019-05-01T05:40:44.716Z,53.17
2019-05-01T05:43:12.057Z,52.62
2019-05-01T05:45:39.593Z,51.75
2019-05-01T05:48:06.655Z,51.02
2019-05-01T05:50:43.309Z,50.12
2019-05-01T05:53:15.628Z,50.28
2019-05-01T05:55:51.280Z,50.06
2019-05-01T05:58:29.886Z,49.80
2019-05-01T06:01:38.267Z,49.17
2019-05-01T06:04:27.815Z,48.64
2019-05-01T06:07:14.381Z,47.26
2019-05-01T06:09:53.165Z,45.87
2019-05-01T06:12:41.623Z,46.64
2019-05-01T06:15:19.144Z,47.23
2019-05-01T06:18:06.127Z,47.58
2019-05-01T06:20:43.144Z,45.91
2019-05-01T06:23:29.991Z,44.95
2019-05-01T06:26:22.092Z,43.41
2019-05-01T06:28:50.196Z,42.41
2019-05-01T06:31:23.186Z,41.65
2019-05-01T06:33:53.133Z,42.74
2019-05-01T06:36:23.991Z,42.41
2019-05-01T06:38:52.267Z,41.18
2019-05-01T06:41:19.897Z,40.35
2019-05-01T06:44:07.542Z,40.26
2019-05-01T06:47:19.048Z,39.78
2019-05-01T06:50:20.201Z,40.46
2019-05-01T06:52:47.865Z,39.24
2019-05-01T06:55:15.112Z,42.56
2019-05-01T06:57:45.679Z,40.77
2019-05-01T07:00:16.953Z,39.69
2019-05-01T07:02:50.125Z,39.79
2019-05-01T07:05:20.198Z,38.79
2019-05-01T07:07:53.056Z,37.64
2019-05-01T07:10:29.853Z,36.06
2019-05-01T07:12:47.107Z,36.79
2019-05-01T07:15:14.384Z,35.48
2019-05-01T07:17:43.927Z,35.07
2019-05-01T07:20:20.331Z,33.68
2019-05-01T07:22:52.320Z,32.71
2019-05-01T07:25:22.232Z,33.12
2019-05-01T07:27:53.947Z,34.38
2019-05-01T07:30:29.936Z,34.66
2019-05-01T07:32:59.833Z,36.27
2019-05-01T07:35:32.999Z,37.31
2019-05-01T07:38:02.246Z,35.78
2019-05-01T07:40:32.001Z,35.30
2019-05-01T07:43:06.429Z,34.11
2019-05-01T07:45:56.157Z,33.25
2019-05-01T07:48:36.092Z,32.81
2019-05-01T07:51:07.012Z,33.53
2019-05-01T07:53:37.308Z,33.80
2019-05-01T07:56:07.302Z,35.93
2019-05-01T07:58:34.377Z,37.80
2019-05-01T08:01:13.209Z,39.44
2019-05-01T08:03:42.753Z,39.81
2019-05-01T08:06:16.331Z,38.52
2019-05-01T08:08:44.539Z,39.86
2019-05-01T08:11:11.572Z,39.87
2019-05-01T08:13:38.622Z,38.81
2019-05-01T08:16:07.032Z,37.95
2019-05-01T08:18:49.243Z,38.90
2019-05-01T08:21:34.299Z,39.75
2019-05-01T08:24:05.118Z,36.87
2019-05-01T08:26:32.160Z,31.64
2019-05-01T08:29:21.611Z,31.86
2019-05-01T08:32:17.259Z,33.75
2019-05-01T08:34:49.083Z,31.86
2019-05-01T08:37:17.807Z,30.14
2019-05-01T08:39:44.287Z,28.64
2019-05-01T08:42:11.702Z,29.37
2019-05-01T08:44:52.506Z,30.24
2019-05-01T08:47:27.747Z,29.54
2019-05-01T08:50:00.000Z,28.75
2019-05-01T08:52:27.075Z,31.47
2019-05-01T08:54:54.898Z,32.83
2019-05-01T08:57:22.391Z,33.54
2019-05-01T08:59:50.185Z,31.66
2019-05-01T09:02:18.985Z,29.61
2019-05-01T09:04:46.094Z,28.21
2019-05-01T09:07:14.632Z,27.82
2019-05-01T09:09:47.290Z,30.21
2019-05-01T09:12:14.198Z,31.27
2019-05-01T09:14:41.299Z,31.09
2019-05-01T09:17:08.389Z,28.22
2019-05-01T09:19:35.670Z,27.77
2019-05-01T09:22:04.149Z,27.11
2019-05-01T09:24:31.522Z,28.56
2019-05-01T09:27:09.971Z,27.92
2019-05-01T09:29:41.843Z,27.99
2019-05-01T09:32:25.030Z,28.55
2019-05-01T09:34:58.276Z,32.31
2019-05-01T09:37:33.994Z,33.73
2019-05-01T09:40:11.740Z,33.69
2019-05-01T09:42:42.856Z,31.37
2019-05-01T09:45:26.030Z,28.09
2019-05-01T09:47:55.239Z,31.86
2019-05-01T09:50:30.461Z,31.19
2019-05-01T09:53:15.226Z,27.91
2019-05-01T09:55:54.271Z,25.63
2019-05-01T09:58:37.858Z,24.65
2019-05-01T10:01:08.244Z,26.08
2019-05-01T10:03:37.477Z,26.88
2019-05-01T10:06:12.867Z,24.01
2019-05-01T10:08:44.360Z,22.54
2019-05-01T10:11:28.768Z,21.84
2019-05-01T10:14:04.159Z,20.62
2019-05-01T10:16:34.198Z,19.69
2019-05-01T10:19:10.859Z,21.85
2019-05-01T10:21:38.558Z,21.67
2019-05-01T10:24:05.619Z,19.45
2019-05-01T10:26:34.649Z,17.97
2019-05-01T10:29:15.412Z,23.37
2019-05-01T10:32:02.195Z,19.50
2019-05-01T10:34:38.723Z,18.35
2019-05-01T10:37:06.187Z,17.35
2019-05-01T10:39:33.245Z,15.99
2019-05-01T10:42:00.294Z,14.43
2019-05-01T10:44:28.023Z,13.79
2019-05-01T10:46:55.227Z,12.51
2019-05-01T10:49:22.461Z,14.04
2019-05-01T10:51:49.639Z,15.84
2019-05-01T10:54:16.696Z,20.71
2019-05-01T10:56:43.893Z,18.61
2019-05-01T10:59:12.164Z,16.75
2019-05-01T11:01:49.919Z,15.84
2019-05-01T11:04:17.111Z,14.92
2019-05-01T11:06:44.250Z,16.01
2019-05-01T11:09:12.898Z,15.96
2019-05-01T11:11:39.987Z,16.78
2019-05-01T11:14:07.049Z,15.49
2019-05-01T11:16:34.331Z,18.33
2019-05-01T11:19:01.572Z,19.17
2019-05-01T11:21:28.721Z,19.25
2019-05-01T11:23:55.777Z,18.31
2019-05-01T11:26:22.856Z,17.56
2019-05-01T11:28:51.203Z,17.60
2019-05-01T11:31:25.182Z,14.95
2019-05-01T11:34:14.073Z,13.84
2019-05-01T11:37:12.916Z,15.16
2019-05-01T11:39:44.667Z,16.41
2019-05-01T11:42:13.341Z,15.73
2019-05-01T11:44:41.872Z,14.92
2019-05-01T11:47:08.913Z,14.93
2019-05-01T11:49:36.436Z,13.32
2019-05-01T11:52:05.810Z,11.56
2019-05-01T11:54:35.612Z,12.08
2019-05-01T11:57:06.761Z,12.20
2019-05-01T11:59:40.589Z,10.94
2019-05-01T12:02:15.793Z,10.61
2019-05-01T12:04:43.955Z,11.11
2019-05-01T12:07:17.718Z,12.14
2019-05-01T12:10:04.873Z,12.32
2019-05-01T12:12:37.867Z,11.50
2019-05-01T12:15:09.584Z,11.11
2019-05-01T12:17:58.454Z,12.09
2019-05-01T12:21:07.319Z,13.69
2019-05-01T12:24:04.400Z,13.36
2019-05-01T12:26:37.107Z,17.93
2019-05-01T12:29:04.740Z,18.24
2019-05-01T12:31:44.633Z,15.05
2019-05-01T12:34:11.704Z,15.99
2019-05-01T12:36:41.151Z,17.02
2019-05-01T12:39:10.611Z,13.53
2019-05-01T12:41:49.289Z,13.75
2019-05-01T12:44:16.576Z,12.31
2019-05-01T12:46:50.675Z,12.22
2019-05-01T12:49:17.728Z,11.98
2019-05-01T12:51:46.926Z,11.10
2019-05-01T12:54:21.280Z,11.98
2019-05-01T12:56:52.652Z,15.03
2019-05-01T12:59:19.664Z,14.65
2019-05-01T13:01:47.945Z,18.88
2019-05-01T13:04:15.509Z,17.99
2019-05-01T13:06:49.414Z,16.55
2019-05-01T13:09:14.972Z,15.84
2019-05-01T13:11:44.648Z,18.28
2019-05-01T13:14:15.822Z,14.35
2019-05-01T13:16:44.741Z,13.02
2019-05-01T13:19:12.743Z,11.48
2019-05-01T13:21:43.074Z,13.74
2019-05-01T13:24:10.714Z,12.22
2019-05-01T13:26:47.291Z,12.72
2019-05-01T13:29:30.116Z,16.26
2019-05-01T13:32:36.062Z,13.86
2019-05-01T13:35:04.283Z,13.60
2019-05-01T13:37:33.771Z,11.56
2019-05-01T13:40:03.381Z,10.66
2019-05-01T13:43:05.393Z,10.99
2019-05-01T13:45:37.599Z,14.48
2019-05-01T13:48:06.776Z,17.83
2019-05-01T13:50:41.750Z,17.60
2019-05-01T13:53:12.044Z,13.60
2019-05-01T13:55:50.369Z,11.78
2019-05-01T13:58:22.439Z,10.66
2019-05-01T14:00:54.394Z,15.80
2019-05-01T14:03:26.128Z,13.60
2019-05-01T14:06:01.466Z,15.19
2019-05-01T14:08:35.889Z,15.42
2019-05-01T14:11:17.422Z,19.19
2019-05-01T14:18:41.997Z,17.45
2019-05-01T14:21:32.245Z,18.91
2019-05-01T14:24:22.142Z,20.27
2019-05-01T14:26:55.193Z,22.43
2019-05-01T14:29:40.478Z,20.93
2019-05-01T14:32:14.381Z,20.78
2019-05-01T14:35:14.649Z,19.34
2019-05-01T14:37:52.545Z,19.79
2019-05-01T14:40:23.711Z,18.48
2019-05-01T14:42:51.914Z,15.45
2019-05-01T14:45:19.377Z,18.30
2019-05-01T14:47:46.813Z,19.05
2019-05-01T14:50:15.019Z,19.37
2019-05-01T14:52:42.322Z,19.02
2019-05-01T14:55:09.933Z,19.42
2019-05-01T14:57:38.209Z,16.91
2019-05-01T15:00:05.835Z,16.66
2019-05-01T15:02:34.500Z,13.70
2019-05-01T15:05:12.514Z,11.58
2019-05-01T15:07:54.644Z,10.79
2019-05-01T15:10:28.713Z,16.14
2019-05-01T15:13:00.676Z,19.22
2019-05-01T15:15:42.082Z,20.13
2019-05-01T15:18:28.863Z,16.71
2019-05-01T15:20:56.577Z,15.72
2019-05-01T15:23:23.631Z,17.00
2019-05-01T15:25:54.780Z,19.12
2019-05-01T15:28:29.042Z,15.73
2019-05-01T15:30:56.138Z,15.85
2019-05-01T15:33:26.318Z,13.78
2019-05-01T15:35:53.517Z,12.06
2019-05-01T15:38:21.014Z,12.50
2019-05-01T15:40:58.070Z,12.12
2019-05-01T15:43:28.395Z,12.87
2019-05-01T15:45:55.723Z,13.51
2019-05-01T15:48:40.689Z,16.29
2019-05-01T15:51:08.157Z,14.61
2019-05-01T15:53:35.289Z,17.57
2019-05-01T15:56:02.374Z,16.49
2019-05-01T15:58:29.442Z,14.62
2019-05-01T16:01:18.793Z,13.35
2019-05-01T16:03:55.894Z,13.69
2019-05-01T16:06:23.351Z,12.88
2019-05-01T16:09:17.190Z,12.08
2019-05-01T16:12:04.105Z,12.70
2019-05-01T16:14:37.449Z,14.42
2019-05-01T16:17:04.567Z,14.14
2019-05-01T16:19:31.710Z,14.07
2019-05-01T16:22:01.299Z,14.09
2019-05-01T16:24:32.576Z,13.99
2019-05-01T16:30:00.189Z,14.81
2019-05-01T16:32:27.312Z,13.03
2019-05-01T16:34:57.150Z,13.26
2019-05-01T16:37:31.708Z,12.58
2019-05-01T16:40:31.149Z,16.65
2019-05-01T16:43:11.640Z,20.40
2019-05-01T16:45:38.693Z,20.46
2019-05-01T16:48:06.154Z,19.05
2019-05-01T16:50:45.475Z,19.61
2019-05-01T16:53:15.091Z,19.01
2019-05-01T16:55:43.488Z,18.91
2019-05-01T16:58:24.198Z,18.74
2019-05-01T17:07:02.388Z,18.17
2019-05-01T17:09:55.592Z,18.28
2019-05-01T17:12:52.770Z,18.09
2019-05-01T17:15:33.215Z,17.23
2019-05-01T17:18:00.794Z,19.81
2019-05-01T17:20:27.855Z,19.10
2019-05-01T17:22:57.224Z,18.73
2019-05-01T17:25:24.352Z,18.27
2019-05-01T17:27:58.324Z,17.80
2019-05-01T17:30:38.887Z,17.70
2019-05-01T17:33:06.790Z,18.00
2019-05-01T17:35:36.920Z,18.59
2019-05-01T17:38:10.225Z,18.38
2019-05-01T17:40:40.871Z,18.10
2019-05-01T17:43:15.456Z,19.46
2019-05-01T17:45:51.276Z,20.27
2019-05-01T17:48:23.819Z,20.77
2019-05-01T17:50:55.060Z,21.30
2019-05-01T17:53:21.149Z,20.59
2019-05-01T17:55:48.399Z,20.86
2019-05-01T17:58:15.714Z,20.93
2019-05-01T18:01:02.700Z,20.77
2019-05-01T18:03:47.386Z,21.37
2019-05-01T18:06:17.282Z,22.15
2019-05-01T18:08:44.810Z,23.28
2019-05-01T18:11:14.330Z,23.83
2019-05-01T18:13:41.264Z,24.70
2019-05-01T18:16:08.662Z,25.73
2019-05-01T18:18:35.976Z,26.79
2019-05-01T18:21:04.155Z,28.21
2019-05-01T18:23:49.863Z,29.10
2019-05-01T18:26:31.116Z,29.93
2019-05-01T18:29:22.991Z,30.83
2019-05-01T18:31:50.180Z,30.75
2019-05-01T18:34:18.548Z,31.91
2019-05-01T18:36:50.636Z,32.36
2019-05-01T18:39:25.788Z,32.77
2019-05-01T18:41:55.936Z,33.22
2019-05-01T18:44:23.093Z,33.69
2019-05-01T18:46:50.503Z,34.38
2019-05-01T18:49:17.607Z,35.01
2019-05-01T18:51:45.078Z,35.67
2019-05-01T18:54:36.467Z,35.87
2019-05-01T18:57:05.577Z,37.34
2019-05-01T18:59:35.054Z,37.43
2019-05-01T19:02:02.212Z,37.49
2019-05-01T19:04:29.773Z,37.77
2019-05-01T19:06:59.522Z,38.17
2019-05-01T19:09:30.593Z,38.37
2019-05-01T19:12:00.700Z,39.46
2019-05-01T19:14:32.927Z,39.88
2019-05-01T19:17:04.463Z,40.02
2019-05-01T19:19:40.981Z,40.96
2019-05-01T19:22:08.328Z,41.03
2019-05-01T19:24:38.202Z,41.92
2019-05-01T19:27:06.601Z,42.23
2019-05-01T19:29:41.024Z,42.59
2019-05-01T19:32:16.544Z,42.92
2019-05-01T19:34:45.743Z,43.06
2019-05-01T19:37:21.833Z,43.24
2019-05-01T19:39:53.785Z,43.63
2019-05-01T19:42:21.713Z,43.76
2019-05-01T19:44:55.482Z,44.58
2019-05-01T19:47:22.352Z,45.14
2019-05-01T19:49:54.417Z,46.32
2019-05-01T19:52:24.655Z,46.09
2019-05-01T19:54:52.336Z,45.79
2019-05-01T19:57:19.599Z,45.89
2019-05-01T19:59:47.199Z,46.19
2019-05-01T20:02:17.153Z,46.19
2019-05-01T20:04:45.177Z,47.27
2019-05-01T20:07:15.668Z,47.14
2019-05-01T20:09:56.639Z,47.61
2019-05-01T20:12:20.027Z,48.44
2019-05-01T20:14:47.386Z,49.84
2019-05-01T20:17:17.935Z,50.27
2019-05-01T20:19:48.419Z,50.34
2019-05-01T20:22:15.747Z,50.30
2019-05-01T20:24:44.297Z,50.70
2019-05-01T20:27:14.708Z,50.60
2019-05-01T20:29:46.293Z,50.40
2019-05-01T20:32:13.667Z,50.52
2019-05-01T20:34:40.946Z,50.38
2019-05-01T20:37:08.136Z,50.36
2019-05-01T20:39:36.688Z,51.00
2019-05-01T20:42:04.469Z,51.06
2019-05-01T20:44:32.965Z,51.24
2019-05-01T20:47:02.905Z,52.51
2019-05-01T20:49:41.337Z,54.37
2019-05-01T20:52:14.044Z,55.51
2019-05-01T20:54:47.956Z,57.07
2019-05-01T20:57:25.205Z,58.08
2019-05-01T21:00:01.636Z,58.80
2019-05-01T21:02:32.538Z,58.91
2019-05-01T21:05:50.924Z,58.75
2019-05-01T21:08:45.085Z,57.70
2019-05-01T21:11:25.542Z,58.11
2019-05-01T21:14:14.809Z,56.93
2019-05-01T21:16:25.022Z,56.06
2019-05-01T21:18:53.396Z,54.93
2019-05-01T21:21:20.543Z,54.35
2019-05-01T21:23:48.041Z,53.79
2019-05-01T21:26:16.616Z,53.57
2019-05-01T21:28:44.890Z,53.07
2019-05-01T21:31:13.790Z,57.32
2019-05-01T21:33:46.397Z,58.82
2019-05-01T21:36:10.142Z,58.88
2019-05-01T21:38:37.233Z,57.80
2019-05-01T21:41:04.314Z,56.16
2019-05-01T21:43:33.128Z,55.31
2019-05-01T21:46:00.675Z,54.90
2019-05-01T21:48:27.712Z,54.47
2019-05-01T21:50:58.083Z,55.30
2019-05-01T21:53:24.339Z,55.04
2019-05-01T21:55:51.422Z,55.09
2019-05-01T21:58:21.192Z,55.25
2019-05-01T22:00:49.358Z,55.29
2019-05-01T22:03:21.446Z,56.16
2019-05-01T22:05:50.418Z,56.19
2019-05-01T22:08:17.696Z,56.64
2019-05-01T22:10:51.643Z,56.36
2019-05-01T22:13:20.433Z,56.56
2019-05-01T22:15:52.367Z,56.29
2019-05-01T22:18:25.081Z,56.53
2019-05-01T22:20:59.316Z,56.71
2019-05-01T22:23:29.111Z,56.86
2019-05-01T22:25:57.022Z,57.76
2019-05-01T22:28:36.230Z,57.47
2019-05-01T22:31:35.404Z,58.03
2019-05-01T22:34:11.673Z,58.44
2019-05-01T22:36:38.938Z,59.22
2019-05-01T22:39:07.424Z,59.61
2019-05-01T22:41:36.951Z,59.43
2019-05-01T22:44:04.325Z,59.04
2019-05-01T22:46:33.857Z,59.58
2019-05-01T22:49:02.799Z,60.90
2019-05-01T22:51:31.645Z,60.32
2019-05-01T22:53:59.819Z,60.24
2019-05-01T22:56:26.900Z,60.59
2019-05-01T22:58:53.912Z,60.81
2019-05-01T23:01:22.214Z,61.35
2019-05-01T23:03:54.650Z,61.27
2019-05-01T23:06:21.813Z,61.39
2019-05-01T23:08:49.275Z,61.80
2019-05-01T23:11:20.216Z,61.86
2019-05-01T23:13:45.526Z,61.89
2019-05-01T23:16:13.680Z,61.27
2019-05-01T23:18:40.771Z,60.93
2019-05-01T23:21:13.969Z,60.38
2019-05-01T23:23:38.712Z,60.58
2019-05-01T23:26:05.770Z,60.16
2019-05-01T23:28:34.916Z,60.42
2019-05-01T23:31:01.931Z,60.25
2019-05-01T23:33:28.999Z,60.24
2019-05-01T23:35:56.065Z,60.06
2019-05-01T23:38:23.121Z,59.65
2019-05-01T23:40:52.754Z,59.54
2019-05-01T23:43:22.958Z,58.94
2019-05-01T23:45:48.467Z,58.81
2019-05-01T23:48:15.612Z,58.98
2019-05-01T23:50:42.788Z,58.87
2019-05-01T23:53:13.968Z,59.38
2019-05-01T23:55:39.235Z,60.35
2019-05-01T23:58:06.252Z,61.11
